Terminal Aerodrome Forecast
Issued by NWS

Home | Current Version | Previous Version | Text Only | Print | Product List | Glossary Off
Versions: 1 2 3 4 5 6 7 8 9 10 11 12 13 14 15 16 17 18 19 20 21 22 23 24 25 26 27 28 29 30 31 32 33 34 35 36 37 38 39 40 41 42 43 44 45 46 47 48 49 50

000
FTUS43 KLOT 260520
TAFGYY
TAF
KGYY 260520Z 2606/2706 02009KT P6SM BKN100
     FM260800 03011KT P6SM SKC
     FM261400 02012G19KT P6SM SKC
     FM261700 01015G23KT P6SM SKC
     FM270200 36009KT P6SM SKC=

USA.gov is the U.S. government's official web portal to all federal, state and local government web resources and services.